createdAt,value
2017-05-13T00:00:14.498Z,17.99
2017-05-13T00:01:24.839Z,18.05
2017-05-13T00:02:35.214Z,18.02
2017-05-13T00:03:45.591Z,17.99
2017-05-13T00:04:56.162Z,18.05
2017-05-13T00:06:06.631Z,18.01
2017-05-13T00:07:16.973Z,18.08
2017-05-13T00:08:27.329Z,18.08
2017-05-13T00:09:37.371Z,18.06
2017-05-13T00:10:47.432Z,18.08
2017-05-13T00:11:57.785Z,18.16
2017-05-13T00:13:08.146Z,18.14
2017-05-13T00:14:18.494Z,18.17
2017-05-13T00:15:28.576Z,18.14
2017-05-13T00:16:38.919Z,18.16
2017-05-13T00:17:49.260Z,18.16
2017-05-13T00:18:59.644Z,18.16
2017-05-13T00:20:10.013Z,18.16
2017-05-13T00:21:20.057Z,18.16
2017-05-13T00:22:30.402Z,18.17
2017-05-13T00:23:40.518Z,18.2
2017-05-13T00:24:50.866Z,18.14
2017-05-13T00:26:00.900Z,18.14
2017-05-13T00:27:10.642Z,18.17
2017-05-13T00:28:20.690Z,18.2
2017-05-13T00:29:30.726Z,18.17
2017-05-13T00:30:40.767Z,18.21
2017-05-13T00:31:51.112Z,18.16
2017-05-13T00:33:01.153Z,18.19
2017-05-13T00:34:11.762Z,18.23
2017-05-13T00:35:21.805Z,18.17
2017-05-13T00:36:32.165Z,18.11
2017-05-13T00:37:42.557Z,18.14
2017-05-13T00:38:52.592Z,18.13
2017-05-13T00:40:02.944Z,18.17
2017-05-13T00:41:13.295Z,18.13
2017-05-13T00:42:23.642Z,18.1
2017-05-13T00:43:34.001Z,18.1
2017-05-13T00:44:44.355Z,18.06
2017-05-13T00:45:54.707Z,18.05
2017-05-13T00:47:05.107Z,17.98
2017-05-13T00:48:15.477Z,18.05
2017-05-13T00:49:25.829Z,17.99
2017-05-13T00:50:36.187Z,18.01
2017-05-13T00:51:46.547Z,17.99
2017-05-13T00:52:56.591Z,17.87
2017-05-13T00:54:06.636Z,17.94
2017-05-13T00:55:16.977Z,17.98
2017-05-13T00:56:27.320Z,17.92
2017-05-13T00:57:37.044Z,17.99
2017-05-13T00:58:46.771Z,17.95
2017-05-13T00:59:56.817Z,18.06
2017-05-13T01:01:07.175Z,18.05
2017-05-13T01:02:17.546Z,17.94
2017-05-13T01:03:27.897Z,17.88
2017-05-13T01:04:38.253Z,17.96
2017-05-13T01:05:48.611Z,17.84
2017-05-13T01:06:58.957Z,17.94
2017-05-13T01:08:08.994Z,17.88
2017-05-13T01:09:19.037Z,17.92
2017-05-13T01:10:29.072Z,17.88
2017-05-13T01:11:39.429Z,17.92
2017-05-13T01:12:49.777Z,17.88
2017-05-13T01:14:00.335Z,17.79
2017-05-13T01:15:10.690Z,17.79
2017-05-13T01:16:21.042Z,17.81
2017-05-13T01:17:31.381Z,17.76
2017-05-13T01:18:41.450Z,17.76
2017-05-13T01:19:51.808Z,17.76
2017-05-13T01:21:02.166Z,17.8
2017-05-13T01:22:12.510Z,17.73
2017-05-13T01:23:22.871Z,17.66
2017-05-13T01:24:32.902Z,17.66
2017-05-13T01:25:42.948Z,17.63
2017-05-13T01:26:53.002Z,17.74
2017-05-13T01:28:03.347Z,17.77
2017-05-13T01:29:13.706Z,17.79
2017-05-13T01:30:23.736Z,17.81
2017-05-13T01:31:34.129Z,17.77
2017-05-13T01:32:44.178Z,17.9
2017-05-13T01:33:54.538Z,17.84
2017-05-13T01:35:04.895Z,17.84
2017-05-13T01:36:15.264Z,17.94
2017-05-13T01:37:25.616Z,17.96
2017-05-13T01:38:35.979Z,18.03
2017-05-13T01:39:46.395Z,18.06
2017-05-13T01:40:56.756Z,17.96
2017-05-13T01:42:06.789Z,18.01
2017-05-13T01:43:17.145Z,17.98
2017-05-13T01:44:27.495Z,18.08
2017-05-13T01:45:37.547Z,18.05
2017-05-13T01:46:47.916Z,18.03
2017-05-13T01:47:58.281Z,18.03
2017-05-13T01:49:08.337Z,18.03
2017-05-13T01:50:18.374Z,18.05
2017-05-13T01:51:28.730Z,17.96
2017-05-13T01:52:39.083Z,17.94
2017-05-13T01:53:49.442Z,17.88
2017-05-13T01:54:59.488Z,17.9
2017-05-13T01:56:09.523Z,17.86
2017-05-13T01:57:19.559Z,17.79
2017-05-13T01:58:29.582Z,17.74
2017-05-13T01:59:39.959Z,17.69
2017-05-13T02:00:49.698Z,17.63
2017-05-13T02:01:59.736Z,17.71
2017-05-13T02:03:10.127Z,17.66
2017-05-13T02:04:20.465Z,17.65
2017-05-13T02:05:30.823Z,17.62
2017-05-13T02:06:40.542Z,17.54
2017-05-13T02:07:50.587Z,17.52
2017-05-13T02:09:00.937Z,17.52
2017-05-13T02:10:10.981Z,17.5
2017-05-13T02:11:21.344Z,17.54
2017-05-13T02:12:31.691Z,17.57
2017-05-13T02:13:42.052Z,17.54
2017-05-13T02:14:52.091Z,17.54
2017-05-13T02:16:02.162Z,17.52
2017-05-13T02:17:12.524Z,17.45
2017-05-13T02:18:22.570Z,17.4
2017-05-13T02:19:32.920Z,17.38
2017-05-13T02:20:42.969Z,17.38
2017-05-13T02:21:53.311Z,17.28
2017-05-13T02:23:03.657Z,17.35
2017-05-13T02:24:13.996Z,17.31
2017-05-13T02:25:24.384Z,17.25
2017-05-13T02:26:34.734Z,17.38
2017-05-13T02:27:44.789Z,17.3
2017-05-13T02:28:55.153Z,17.39
2017-05-13T02:30:05.240Z,17.31
2017-05-13T02:31:14.964Z,17.31
2017-05-13T02:32:25.001Z,17.36
2017-05-13T02:33:35.347Z,17.32
2017-05-13T02:34:45.400Z,17.39
2017-05-13T02:35:55.753Z,17.35
2017-05-13T02:37:06.103Z,17.38
2017-05-13T02:38:16.206Z,17.4
2017-05-13T02:39:26.548Z,17.46
2017-05-13T02:40:36.889Z,17.43
2017-05-13T02:41:47.238Z,17.45
2017-05-13T02:42:57.593Z,17.45
2017-05-13T02:44:07.690Z,17.45
2017-05-13T02:45:17.733Z,17.45
2017-05-13T02:46:28.079Z,17.43
2017-05-13T02:47:38.123Z,17.47
2017-05-13T02:48:48.161Z,17.5
2017-05-13T02:49:58.862Z,17.47
2017-05-13T02:51:09.220Z,17.47
2017-05-13T02:52:19.262Z,17.52
2017-05-13T02:53:29.621Z,17.5
2017-05-13T02:54:39.968Z,17.52
2017-05-13T02:55:50.318Z,17.52
2017-05-13T02:57:00.382Z,17.55
2017-05-13T02:58:10.978Z,17.54
2017-05-13T02:59:21.015Z,17.66
2017-05-13T03:00:31.419Z,17.66
2017-05-13T03:01:41.841Z,17.66
2017-05-13T03:33:12.994Z,15.16
2017-05-13T03:34:23.329Z,15.2
2017-05-13T03:35:33.678Z,15.26
2017-05-13T03:36:43.730Z,15.31
2017-05-13T03:37:54.091Z,15.41
2017-05-13T03:39:04.555Z,15.58
2017-05-13T03:40:14.891Z,15.62
2017-05-13T03:41:25.241Z,15.88
2017-05-13T03:42:35.585Z,16.07
2017-05-13T03:43:45.938Z,16.25
2017-05-13T03:44:56.396Z,16.45
2017-05-13T03:46:06.434Z,16.44
2017-05-13T03:47:16.475Z,16.54
2017-05-13T03:48:26.505Z,16.73
2017-05-13T03:49:36.856Z,16.92
2017-05-13T03:50:47.361Z,17.1
2017-05-13T03:51:57.415Z,17.2
2017-05-13T03:53:07.439Z,17.38
2017-05-13T03:54:17.793Z,17.58
2017-05-13T03:55:28.154Z,17.71
2017-05-13T03:56:38.301Z,17.81
2017-05-13T03:57:48.659Z,17.92
2017-05-13T03:58:59.014Z,18.03
2017-05-13T04:00:09.360Z,18.19
2017-05-13T04:01:19.726Z,18.2
2017-05-13T04:02:30.191Z,18.34
2017-05-13T04:03:40.562Z,18.31
2017-05-13T04:04:50.974Z,18.59
2017-05-13T04:06:01.320Z,18.54
2017-05-13T04:07:11.354Z,18.57
2017-05-13T04:08:21.482Z,18.72
2017-05-13T04:09:31.515Z,18.78
2017-05-13T04:10:41.551Z,18.81
2017-05-13T04:11:51.898Z,18.91
2017-05-13T04:13:01.964Z,18.94
2017-05-13T04:14:12.412Z,19.02
2017-05-13T04:15:22.456Z,19.13
2017-05-13T04:16:32.805Z,19.12
2017-05-13T04:17:42.833Z,19.24
2017-05-13T04:18:52.890Z,19.32
2017-05-13T04:20:03.348Z,19.37
2017-05-13T04:21:13.397Z,19.43
2017-05-13T04:22:23.738Z,19.46
2017-05-13T04:23:34.154Z,19.5
2017-05-13T04:24:44.503Z,19.53
2017-05-13T04:25:54.959Z,19.6
2017-05-13T04:27:05.001Z,19.64
2017-05-13T04:28:15.359Z,19.79
2017-05-13T04:29:25.408Z,19.79
2017-05-13T04:30:35.768Z,19.83
2017-05-13T04:31:46.215Z,19.86
2017-05-13T04:32:56.571Z,19.92
2017-05-13T04:34:06.985Z,20
2017-05-13T04:35:17.253Z,20
2017-05-13T04:36:27.302Z,20
2017-05-13T04:37:37.750Z,20.1
2017-05-13T04:38:48.113Z,20.2
2017-05-13T04:39:58.480Z,20.38
2017-05-13T04:41:08.837Z,20.41
2017-05-13T04:42:18.878Z,20.42
2017-05-13T04:43:29.450Z,20.64
2017-05-13T04:44:39.492Z,20.79
2017-05-13T04:45:49.594Z,21.18
2017-05-13T04:46:59.933Z,21.52
2017-05-13T04:48:09.980Z,21.71
2017-05-13T04:49:20.437Z,22.05
2017-05-13T04:50:30.471Z,22.41
2017-05-13T04:51:40.811Z,22.61
2017-05-13T04:52:51.170Z,22.88
2017-05-13T04:54:01.214Z,22.94
2017-05-13T04:55:11.677Z,23.09
2017-05-13T04:56:22.035Z,23.18
2017-05-13T04:57:32.374Z,23.25
2017-05-13T04:58:42.727Z,23.25
2017-05-13T04:59:53.075Z,23.12
2017-05-13T05:01:03.201Z,23.19
2017-05-13T05:02:13.542Z,22.91
2017-05-13T05:03:23.898Z,22.89
2017-05-13T05:04:34.262Z,22.85
2017-05-13T05:05:44.618Z,22.88
2017-05-13T05:06:54.766Z,22.7
2017-05-13T05:08:05.113Z,22.7
2017-05-13T05:09:15.159Z,22.76
2017-05-13T05:10:25.533Z,22.73
2017-05-13T05:11:35.883Z,22.91
2017-05-13T05:12:46.395Z,22.94
2017-05-13T05:13:56.761Z,23.06
2017-05-13T05:15:06.804Z,23.21
2017-05-13T05:16:16.846Z,23.45
2017-05-13T05:17:26.882Z,23.67
2017-05-13T05:18:37.338Z,23.94
2017-05-13T05:19:47.063Z,24.11
2017-05-13T05:20:57.420Z,24.27
2017-05-13T05:22:07.774Z,24.29
2017-05-13T05:23:18.182Z,24.15
2017-05-13T05:24:28.343Z,24.07
2017-05-13T05:25:38.693Z,23.96
2017-05-13T05:26:48.722Z,23.84
2017-05-13T05:27:59.098Z,23.72
2017-05-13T05:29:09.179Z,23.74
2017-05-13T05:30:19.353Z,23.62
2017-05-13T05:31:29.738Z,23.5
2017-05-13T05:32:40.114Z,23.57
2017-05-13T05:33:50.149Z,23.48
2017-05-13T05:35:00.517Z,23.26
2017-05-13T05:36:10.662Z,23.19
2017-05-13T05:37:20.394Z,23.07
2017-05-13T05:38:30.446Z,23.04
2017-05-13T05:39:40.798Z,22.94
2017-05-13T05:40:50.841Z,22.89
2017-05-13T05:42:01.311Z,22.82
2017-05-13T05:43:11.661Z,22.82
2017-05-13T05:44:22.012Z,22.82
2017-05-13T05:45:32.393Z,22.78
2017-05-13T05:46:42.774Z,22.89
2017-05-13T05:47:52.914Z,22.91
2017-05-13T05:49:02.650Z,22.92
2017-05-13T05:50:12.697Z,22.91
2017-05-13T05:51:23.068Z,22.91
2017-05-13T05:52:32.827Z,22.91
2017-05-13T05:53:42.968Z,22.91
2017-05-13T05:54:53.335Z,22.91
2017-05-13T05:56:03.385Z,23.03
2017-05-13T05:57:13.746Z,22.91
2017-05-13T05:58:23.799Z,22.94
2017-05-13T05:59:33.949Z,22.97
2017-05-13T06:00:44.307Z,23.06
2017-05-13T06:01:54.657Z,23.04
2017-05-13T06:03:04.691Z,22.96
2017-05-13T06:04:15.033Z,23.07
2017-05-13T06:05:25.503Z,23.06
2017-05-13T06:06:35.882Z,23.16
2017-05-13T06:07:46.242Z,23.26
2017-05-13T06:08:56.588Z,23.24
2017-05-13T06:10:06.928Z,23.35
2017-05-13T06:11:17.388Z,23.44
2017-05-13T06:12:27.745Z,23.53
2017-05-13T06:13:37.779Z,23.44
2017-05-13T06:14:47.821Z,23.35
2017-05-13T06:15:57.849Z,23.38
2017-05-13T06:17:07.682Z,23.22
2017-05-13T06:18:18.072Z,23.18
2017-05-13T06:19:28.428Z,23.19
2017-05-13T06:20:38.648Z,23.19
2017-05-13T06:21:49.002Z,23.15
2017-05-13T06:22:59.147Z,23.15
2017-05-13T06:24:09.522Z,23.19
2017-05-13T06:25:19.872Z,23.15
2017-05-13T06:26:29.607Z,23.15
2017-05-13T06:27:39.963Z,23.24
2017-05-13T06:28:50.410Z,23.28
2017-05-13T06:30:00.762Z,23.29
2017-05-13T06:31:11.119Z,23.26
2017-05-13T06:32:21.466Z,23.25
2017-05-13T06:33:31.820Z,23.15
2017-05-13T06:34:42.268Z,23.12
2017-05-13T06:35:52.675Z,23.09
2017-05-13T06:37:02.397Z,22.89
2017-05-13T06:38:12.441Z,22.92
2017-05-13T06:39:22.801Z,22.91
2017-05-13T06:40:33.280Z,22.96
2017-05-13T06:41:43.328Z,22.92
2017-05-13T06:42:53.360Z,22.91
2017-05-13T06:44:03.716Z,22.89
2017-05-13T06:45:14.070Z,22.7
2017-05-13T06:46:24.220Z,22.7
2017-05-13T06:47:34.567Z,22.55
2017-05-13T06:48:44.924Z,22.44
2017-05-13T06:49:54.951Z,22.27
2017-05-13T06:51:04.996Z,22.16
2017-05-13T06:52:15.456Z,21.99
2017-05-13T06:53:25.801Z,21.97
2017-05-13T06:54:35.835Z,21.74
2017-05-13T06:55:45.884Z,21.71
2017-05-13T06:56:56.243Z,21.56
2017-05-13T06:58:06.399Z,21.49
2017-05-13T06:59:16.124Z,21.33
2017-05-13T07:00:26.489Z,21.11
2017-05-13T07:01:36.860Z,20.97
2017-05-13T07:02:47.210Z,20.78
2017-05-13T07:03:57.664Z,20.53
2017-05-13T07:05:08.017Z,20.34
2017-05-13T07:06:18.381Z,20.15
2017-05-13T07:07:28.807Z,20.04
2017-05-13T07:08:38.844Z,19.79
2017-05-13T07:09:49.337Z,19.68
2017-05-13T07:10:59.684Z,19.63
2017-05-13T07:12:10.039Z,19.47
2017-05-13T07:13:20.074Z,19.43
2017-05-13T07:14:30.119Z,19.32
2017-05-13T07:15:40.327Z,19.23
2017-05-13T07:16:50.696Z,19.19
2017-05-13T07:18:01.054Z,19.06
2017-05-13T07:19:11.419Z,19.13
2017-05-13T07:20:21.450Z,19.09
2017-05-13T07:21:31.906Z,19.07
2017-05-13T07:22:42.273Z,19
2017-05-13T07:23:52.329Z,19.06
2017-05-13T07:25:02.680Z,18.93
2017-05-13T07:26:13.058Z,18.91
2017-05-13T07:27:23.518Z,18.87
2017-05-13T07:28:33.240Z,18.9
2017-05-13T07:29:43.581Z,18.86
2017-05-13T07:30:53.631Z,18.86
2017-05-13T07:32:04.027Z,18.79
2017-05-13T07:33:14.171Z,18.82
2017-05-13T07:34:24.540Z,18.9
2017-05-13T07:35:34.904Z,18.91
2017-05-13T07:36:45.270Z,18.9
2017-05-13T07:37:55.628Z,18.9
2017-05-13T07:39:05.882Z,18.96
2017-05-13T07:40:15.942Z,18.99
2017-05-13T07:41:26.310Z,19.07
2017-05-13T07:42:36.713Z,19.09
2017-05-13T07:43:47.085Z,19.1
2017-05-13T07:44:57.591Z,19.16
2017-05-13T07:46:07.654Z,19.28
2017-05-13T07:47:18.007Z,19.42
2017-05-13T07:48:28.355Z,19.53
2017-05-13T07:49:38.091Z,19.6
2017-05-13T07:50:48.546Z,19.74
2017-05-13T07:51:58.972Z,19.78
2017-05-13T07:53:09.026Z,19.83
2017-05-13T07:54:19.413Z,20
2017-05-13T07:55:29.782Z,20.08
2017-05-13T07:56:40.250Z,20.1
2017-05-13T07:57:50.307Z,20.26
2017-05-13T07:59:00.657Z,20.41
2017-05-13T08:00:11.017Z,20.57
2017-05-13T08:01:21.380Z,20.66
2017-05-13T08:02:31.845Z,20.85
2017-05-13T08:03:41.580Z,20.97
2017-05-13T08:04:51.647Z,21.08
2017-05-13T08:06:02.011Z,21.25
2017-05-13T08:07:12.407Z,21.34
2017-05-13T08:08:22.865Z,21.49
2017-05-13T08:09:33.203Z,21.49
2017-05-13T08:10:43.555Z,21.55
2017-05-13T08:11:53.906Z,21.55
2017-05-13T08:13:04.268Z,21.61
2017-05-13T08:14:14.420Z,21.64
2017-05-13T08:15:24.493Z,21.56
2017-05-13T08:16:34.864Z,21.7
2017-05-13T08:17:45.204Z,21.71
2017-05-13T08:18:55.567Z,21.76
2017-05-13T08:20:06.042Z,21.78
2017-05-13T08:21:16.404Z,21.86
2017-05-13T08:22:26.451Z,21.86
2017-05-13T08:23:36.859Z,21.92
2017-05-13T08:24:47.235Z,21.97
2017-05-13T08:25:57.709Z,21.97
2017-05-13T08:27:07.751Z,22.08
2017-05-13T08:28:18.123Z,22.11
2017-05-13T08:29:28.480Z,22.11
2017-05-13T08:30:38.859Z,22.16
2017-05-13T08:31:49.335Z,22.18
2017-05-13T08:32:59.686Z,22.23
2017-05-13T08:34:10.037Z,22.39
2017-05-13T08:35:20.391Z,22.42
2017-05-13T08:36:30.470Z,22.45
2017-05-13T08:37:41.246Z,22.52
2017-05-13T08:38:51.616Z,22.6
2017-05-13T08:40:01.663Z,22.64
2017-05-13T08:41:11.709Z,22.82
2017-05-13T08:42:21.756Z,22.85
2017-05-13T08:43:32.223Z,22.96
2017-05-13T08:44:42.245Z,22.99
2017-05-13T08:45:52.628Z,22.91
2017-05-13T08:47:03.035Z,23.15
2017-05-13T08:48:13.395Z,23.25
2017-05-13T08:49:23.867Z,23.35
2017-05-13T08:50:34.245Z,23.56
2017-05-13T08:51:44.286Z,23.62
2017-05-13T08:52:54.047Z,23.64
2017-05-13T08:54:04.098Z,23.75
2017-05-13T08:55:14.836Z,23.81
2017-05-13T08:56:24.897Z,23.96
2017-05-13T08:57:35.467Z,24.03
2017-05-13T08:58:45.804Z,24.19
2017-05-13T08:59:55.530Z,24.27
2017-05-13T09:01:05.675Z,24.37
2017-05-13T09:02:15.409Z,24.33
2017-05-13T09:03:25.131Z,24.39
2017-05-13T09:04:35.190Z,24.44
2017-05-13T09:05:45.579Z,24.42
2017-05-13T09:06:56.029Z,24.56
2017-05-13T09:08:06.395Z,24.64
2017-05-13T09:09:16.738Z,24.59
2017-05-13T09:10:27.099Z,24.7
2017-05-13T09:11:37.151Z,24.74
2017-05-13T09:12:47.657Z,24.87
2017-05-13T09:13:57.391Z,25.04
2017-05-13T09:15:07.752Z,25.11
2017-05-13T09:16:17.790Z,25.12
2017-05-13T09:17:28.163Z,25.27
2017-05-13T09:18:38.685Z,25.29
2017-05-13T09:19:49.054Z,25.48
2017-05-13T09:20:59.400Z,25.38
2017-05-13T09:22:09.125Z,25.52
2017-05-13T09:23:19.159Z,25.54
2017-05-13T09:24:29.665Z,25.56
2017-05-13T09:25:40.030Z,25.66
2017-05-13T09:26:50.083Z,25.74
2017-05-13T09:28:00.460Z,25.75
2017-05-13T09:29:10.842Z,25.85
2017-05-13T09:30:21.044Z,25.94
2017-05-13T09:31:31.386Z,26.06
2017-05-13T09:32:41.438Z,26.2
2017-05-13T09:33:51.814Z,26.31
2017-05-13T09:35:01.872Z,26.27
2017-05-13T09:36:12.090Z,26.5
2017-05-13T09:37:21.818Z,26.59
2017-05-13T09:38:32.185Z,26.81
2017-05-13T09:39:42.290Z,26.9
2017-05-13T09:40:52.674Z,26.93
2017-05-13T09:42:03.183Z,27
2017-05-13T09:43:13.550Z,27.16
2017-05-13T09:44:23.910Z,27.38
2017-05-13T09:45:34.276Z,27.52
2017-05-13T09:46:44.344Z,27.68
2017-05-13T09:47:54.486Z,27.93
2017-05-13T09:49:04.542Z,28.09
2017-05-13T09:50:14.588Z,28.27
2017-05-13T09:51:24.949Z,28.33
2017-05-13T09:52:34.987Z,28.48
2017-05-13T09:53:45.461Z,28.48
2017-05-13T09:54:55.520Z,28.7
2017-05-13T09:56:05.907Z,28.72
2017-05-13T09:57:16.320Z,28.92
2017-05-13T09:58:26.693Z,29.08
2017-05-13T09:59:37.190Z,29.24
2017-05-13T10:00:47.571Z,29.42
2017-05-13T10:01:57.940Z,29.51
2017-05-13T10:03:08.308Z,29.63
2017-05-13T10:04:18.362Z,29.73
2017-05-13T10:05:28.890Z,29.66
2017-05-13T10:06:39.246Z,29.61
2017-05-13T10:07:49.289Z,29.55
2017-05-13T10:08:59.322Z,29.45
2017-05-13T10:10:09.688Z,29.51
2017-05-13T10:11:19.843Z,29.66
2017-05-13T10:12:30.200Z,29.7
2017-05-13T10:13:40.270Z,29.76
2017-05-13T10:14:50.679Z,30.04
2017-05-13T10:16:01.058Z,30.16
2017-05-13T10:17:11.226Z,30.31
2017-05-13T10:18:21.589Z,30.49
2017-05-13T10:19:31.941Z,30.28
2017-05-13T10:20:42.300Z,30.26
2017-05-13T10:21:52.339Z,30.25
2017-05-13T10:23:02.838Z,30.34
2017-05-13T10:24:12.881Z,30.44
2017-05-13T10:25:23.233Z,30.93
2017-05-13T10:26:33.605Z,31.23
2017-05-13T10:27:43.963Z,31.44
2017-05-13T10:28:54.460Z,31.5
2017-05-13T10:30:04.823Z,31.47
2017-05-13T10:31:15.185Z,31.53
2017-05-13T10:32:25.568Z,31.44
2017-05-13T10:33:35.937Z,31.52
2017-05-13T10:34:46.087Z,31.62
2017-05-13T10:35:56.455Z,31.72
2017-05-13T10:37:05.876Z,31.87
2017-05-13T10:38:16.251Z,32.1
2017-05-13T10:39:26.605Z,32.35
2017-05-13T10:40:37.115Z,32.52
2017-05-13T10:41:47.486Z,32.65
2017-05-13T10:42:57.840Z,32.56
2017-05-13T10:44:08.202Z,32.3
2017-05-13T10:45:18.719Z,31.98
2017-05-13T10:46:29.191Z,31.77
2017-05-13T10:47:39.576Z,31.63
2017-05-13T10:48:49.309Z,31.55
2017-05-13T10:49:59.340Z,31.33
2017-05-13T10:51:09.696Z,30.89
2017-05-13T10:52:19.840Z,30.62
2017-05-13T10:53:29.885Z,30.31
2017-05-13T10:54:39.934Z,30.14
2017-05-13T10:55:50.307Z,30.11
2017-05-13T10:57:00.356Z,30.34
2017-05-13T10:58:10.819Z,30.47
2017-05-13T10:59:20.864Z,30.57
2017-05-13T11:00:30.923Z,30.62
2017-05-13T11:01:41.293Z,30.62
2017-05-13T11:02:51.359Z,30.73
2017-05-13T11:04:01.810Z,30.73
2017-05-13T11:05:12.186Z,30.6
2017-05-13T11:06:22.564Z,30.54
2017-05-13T11:07:32.939Z,30.4
2017-05-13T11:08:42.998Z,30.49
2017-05-13T11:09:53.508Z,30.34
2017-05-13T11:11:03.876Z,30.39
2017-05-13T11:12:13.924Z,30.29
2017-05-13T11:13:24.287Z,30.24
2017-05-13T11:14:34.658Z,30.13
2017-05-13T11:15:44.805Z,30.09
2017-05-13T11:16:55.179Z,29.95
2017-05-13T11:18:05.535Z,29.88
2017-05-13T11:19:15.893Z,29.88
2017-05-13T11:20:26.256Z,29.88
2017-05-13T11:21:36.785Z,29.79
2017-05-13T11:22:47.159Z,29.65
2017-05-13T11:23:57.207Z,29.63
2017-05-13T11:25:07.268Z,29.55
2017-05-13T11:26:17.639Z,29.45
2017-05-13T11:27:28.163Z,29.45
2017-05-13T11:28:38.234Z,29.47
2017-05-13T11:29:48.597Z,29.33
2017-05-13T11:30:58.976Z,29.2
2017-05-13T11:32:09.028Z,29.2
2017-05-13T11:33:19.174Z,29.43
2017-05-13T11:34:29.539Z,29.47
2017-05-13T11:35:39.907Z,29.6
2017-05-13T11:36:50.274Z,29.66
2017-05-13T11:38:00.657Z,29.6
2017-05-13T11:39:11.111Z,29.72
2017-05-13T11:40:21.462Z,29.75
2017-05-13T11:41:31.825Z,29.79
2017-05-13T11:42:41.562Z,29.81
2017-05-13T11:43:51.926Z,29.79
2017-05-13T11:45:02.390Z,29.79
2017-05-13T11:46:12.781Z,29.79
2017-05-13T11:47:23.144Z,29.76
2017-05-13T11:48:33.189Z,29.79
2017-05-13T11:49:43.559Z,29.76
2017-05-13T11:50:53.108Z,29.87
2017-05-13T11:52:03.159Z,30
2017-05-13T11:53:13.530Z,30.02
2017-05-13T11:54:23.895Z,30.07
2017-05-13T11:55:33.961Z,30.11
2017-05-13T11:56:44.105Z,30.29
2017-05-13T11:57:54.479Z,30.35
2017-05-13T11:59:04.851Z,30.44
2017-05-13T12:00:15.221Z,30.54
2017-05-13T12:01:25.268Z,30.67
2017-05-13T12:02:35.714Z,30.7
2017-05-13T12:03:45.756Z,30.57
2017-05-13T12:04:56.124Z,30.71
2017-05-13T12:06:06.196Z,30.47
2017-05-13T12:07:15.951Z,30.47
2017-05-13T12:08:26.102Z,30.48
2017-05-13T12:09:36.451Z,30.42
2017-05-13T12:10:46.522Z,30.45
2017-05-13T12:11:56.564Z,30.48
2017-05-13T12:13:06.616Z,30.81
2017-05-13T12:14:16.776Z,31.01
2017-05-13T12:15:27.155Z,31.19
2017-05-13T12:16:37.569Z,31.19
2017-05-13T12:17:47.937Z,31.3
2017-05-13T12:18:58.296Z,31.31
2017-05-13T12:20:07.875Z,31.52
2017-05-13T12:21:17.942Z,31.68
2017-05-13T12:22:28.316Z,31.86
2017-05-13T12:23:38.687Z,31.95
2017-05-13T12:24:49.054Z,32.1
2017-05-13T12:25:59.533Z,32.24
2017-05-13T12:27:09.577Z,32.25
2017-05-13T12:28:19.732Z,32.38
2017-05-13T12:29:30.132Z,32.47
2017-05-13T12:30:40.199Z,32.52
2017-05-13T12:31:50.732Z,32.67
2017-05-13T12:33:01.116Z,32.83
2017-05-13T12:34:11.574Z,33.01
2017-05-13T12:35:21.935Z,33.21
2017-05-13T12:36:32.291Z,33.29
2017-05-13T12:37:42.672Z,33.34
2017-05-13T12:38:52.717Z,33.41
2017-05-13T12:40:03.185Z,33.46
2017-05-13T12:41:13.548Z,33.48
2017-05-13T12:42:23.921Z,33.63
2017-05-13T12:43:33.978Z,33.61
2017-05-13T12:44:44.342Z,33.58
2017-05-13T12:45:54.809Z,33.68
2017-05-13T12:47:05.164Z,33.59
2017-05-13T12:48:15.523Z,33.53
2017-05-13T12:49:25.906Z,33.5
2017-05-13T12:50:35.983Z,33.56
2017-05-13T12:51:46.493Z,33.58
2017-05-13T12:52:56.871Z,33.62
2017-05-13T12:54:07.259Z,33.71
2017-05-13T12:55:17.004Z,33.83
2017-05-13T12:56:27.057Z,33.96
2017-05-13T12:57:37.526Z,34.1
2017-05-13T12:58:47.892Z,34.08
2017-05-13T12:59:58.244Z,34.06
2017-05-13T13:01:08.315Z,33.96
2017-05-13T13:02:18.370Z,33.77
2017-05-13T13:03:28.855Z,33.61
2017-05-13T13:04:38.920Z,33.59
2017-05-13T13:05:49.302Z,33.46
2017-05-13T13:06:59.678Z,33.36
2017-05-13T13:08:10.035Z,33.37
2017-05-13T13:09:20.551Z,33.24
2017-05-13T13:10:30.603Z,33.23
2017-05-13T13:11:40.660Z,33.13
2017-05-13T13:12:51.028Z,33.16
2017-05-13T13:14:01.390Z,33.03
2017-05-13T13:15:11.912Z,33.06
2017-05-13T13:16:22.287Z,32.94
2017-05-13T13:17:32.658Z,32.86
2017-05-13T13:18:42.397Z,32.62
2017-05-13T13:19:52.758Z,32.57
2017-05-13T13:21:03.287Z,32.39
2017-05-13T13:22:13.686Z,32.32
2017-05-13T13:23:24.051Z,32.16
2017-05-13T13:24:34.421Z,32.05
2017-05-13T13:25:44.783Z,32.09
2017-05-13T13:26:55.303Z,31.97
2017-05-13T13:28:05.367Z,31.68
2017-05-13T13:29:15.746Z,31.67
2017-05-13T13:30:26.100Z,31.47
2017-05-13T13:31:36.471Z,31.43
2017-05-13T13:32:46.653Z,31.34
2017-05-13T13:33:57.008Z,31.3
2017-05-13T13:35:07.372Z,31.3
2017-05-13T13:36:17.748Z,31.26
2017-05-13T13:37:28.114Z,31.22
2017-05-13T13:38:38.322Z,31.28
2017-05-13T13:39:48.371Z,31.23
2017-05-13T13:40:58.732Z,31.26
2017-05-13T13:42:09.100Z,31.12
2017-05-13T13:43:19.465Z,31.18
2017-05-13T13:44:29.610Z,31.06
2017-05-13T13:45:39.665Z,31.06
2017-05-13T13:46:50.039Z,31.01
2017-05-13T13:48:00.102Z,30.91
2017-05-13T13:49:10.142Z,30.89
2017-05-13T13:50:20.603Z,30.93
2017-05-13T13:51:30.985Z,30.82
2017-05-13T13:52:41.355Z,30.78
2017-05-13T13:53:51.772Z,30.73
2017-05-13T13:55:01.847Z,30.64
2017-05-13T13:56:12.009Z,30.57
2017-05-13T13:57:22.082Z,30.62
2017-05-13T13:58:32.435Z,30.51
2017-05-13T13:59:42.801Z,30.62
2017-05-13T14:00:53.184Z,30.75
2017-05-13T14:02:03.656Z,30.93
2017-05-13T14:03:14.013Z,31.08
2017-05-13T14:04:24.061Z,31.23
2017-05-13T14:05:34.108Z,31.28
2017-05-13T14:06:44.487Z,31.34
2017-05-13T14:07:54.945Z,31.38
2017-05-13T14:09:05.316Z,31.43
2017-05-13T14:10:15.361Z,31.45
2017-05-13T14:11:25.399Z,31.4
2017-05-13T14:12:35.138Z,31.33
2017-05-13T14:13:45.303Z,31.33
2017-05-13T14:14:55.666Z,31.45
2017-05-13T14:16:06.029Z,31.49
2017-05-13T14:17:16.387Z,31.63
2017-05-13T14:18:26.772Z,31.7
2017-05-13T14:19:37.244Z,31.67
2017-05-13T14:20:47.318Z,31.53
2017-05-13T14:21:57.369Z,31.55
2017-05-13T14:23:07.108Z,31.44
2017-05-13T14:24:17.474Z,31.49
2017-05-13T14:25:27.628Z,31.44
2017-05-13T14:26:38.005Z,31.4
2017-05-13T14:27:48.366Z,31.22
2017-05-13T14:28:58.111Z,31
2017-05-13T14:30:08.468Z,31
2017-05-13T14:31:18.981Z,31.03
2017-05-13T14:32:29.373Z,30.99
2017-05-13T14:33:39.730Z,30.81
2017-05-13T14:34:50.077Z,30.64
2017-05-13T14:36:00.471Z,30.49
2017-05-13T14:37:10.955Z,30.25
2017-05-13T14:38:21.320Z,30.19
2017-05-13T14:39:31.365Z,30.14
2017-05-13T14:40:41.737Z,30.13
2017-05-13T14:41:52.111Z,30.16
2017-05-13T14:43:02.596Z,30.19
2017-05-13T14:44:12.941Z,30.18
2017-05-13T14:45:23.297Z,30.06
2017-05-13T14:46:33.659Z,30.16
2017-05-13T14:47:43.710Z,30.1
2017-05-13T14:48:54.240Z,30.02
2017-05-13T14:50:04.614Z,30.04
2017-05-13T14:51:14.991Z,29.88
2017-05-13T14:52:25.026Z,29.77
2017-05-13T14:53:35.097Z,29.61
2017-05-13T14:54:45.622Z,29.54
2017-05-13T14:55:55.672Z,29.52
2017-05-13T14:57:06.037Z,29.47
2017-05-13T14:58:16.389Z,29.52
2017-05-13T14:59:26.121Z,29.43
2017-05-13T15:00:36.303Z,29.39
2017-05-13T15:01:46.696Z,29.51
2017-05-13T15:02:57.077Z,29.54
2017-05-13T15:04:07.440Z,29.63
2017-05-13T15:05:17.815Z,29.75
2017-05-13T15:06:27.974Z,29.91
2017-05-13T15:07:38.345Z,30.04
2017-05-13T15:08:48.718Z,30.03
2017-05-13T15:09:59.219Z,29.89
2017-05-13T15:11:09.594Z,29.94
2017-05-13T15:12:20.158Z,29.76
2017-05-13T15:13:30.527Z,29.76
2017-05-13T15:14:40.900Z,29.47
2017-05-13T15:15:51.291Z,29.33
2017-05-13T15:17:01.661Z,29.02
2017-05-13T15:18:12.133Z,28.85
2017-05-13T15:19:22.505Z,28.65
2017-05-13T15:20:32.877Z,28.38
2017-05-13T15:21:42.943Z,28.27
2017-05-13T15:22:53.000Z,28.11
2017-05-13T15:24:03.516Z,27.98
2017-05-13T15:25:13.882Z,27.76
2017-05-13T15:26:24.254Z,27.68
2017-05-13T15:27:34.623Z,27.52
2017-05-13T15:28:45.016Z,27.42
2017-05-13T15:29:55.174Z,27.41
2017-05-13T15:31:05.247Z,27.42
2017-05-13T15:32:15.636Z,27.38
2017-05-13T15:33:25.983Z,27.42
2017-05-13T15:34:36.461Z,27.55
2017-05-13T15:35:46.529Z,27.62
2017-05-13T15:36:56.281Z,27.55
2017-05-13T15:38:06.659Z,27.61